sensor_id;sensor_type;location;lat;lon;timestamp;P1;P2;P0
49914;PMS5003;35806;47.958;13.158;2023-06-22T00:01:00;10;9;
49914;PMS5003;35806;47.958;13.158;2023-06-22T00:03:27;9;7;
49914;PMS5003;35806;47.958;13.158;2023-06-22T00:05:55;12;8;
49914;PMS5003;35806;47.958;13.158;2023-06-22T00:08:22;11;8;
49914;PMS5003;35806;47.958;13.158;2023-06-22T00:10:49;9;9;
49914;PMS5003;35806;47.958;13.158;2023-06-22T00:13:16;8;8;
49914;PMS5003;35806;47.958;13.158;2023-06-22T00:15:44;9;9;
49914;PMS5003;35806;47.958;13.158;2023-06-22T00:18:11;14;10;
49914;PMS5003;35806;47.958;13.158;2023-06-22T00:20:39;8;8;
49914;PMS5003;35806;47.958;13.158;2023-06-22T00:23:06;12;10;
49914;PMS5003;35806;47.958;13.158;2023-06-22T00:25:34;11;10;
49914;PMS5003;35806;47.958;13.158;2023-06-22T00:28:01;10;9;
49914;PMS5003;35806;47.958;13.158;2023-06-22T00:30:30;9;9;
49914;PMS5003;35806;47.958;13.158;2023-06-22T00:32:58;13;11;
49914;PMS5003;35806;47.958;13.158;2023-06-22T00:35:26;9;7;
49914;PMS5003;35806;47.958;13.158;2023-06-22T00:37:54;10;9;
49914;PMS5003;35806;47.958;13.158;2023-06-22T00:40:22;14;11;
49914;PMS5003;35806;47.958;13.158;2023-06-22T00:42:49;9;9;
49914;PMS5003;35806;47.958;13.158;2023-06-22T00:45:16;12;11;
49914;PMS5003;35806;47.958;13.158;2023-06-22T00:47:43;13;13;
49914;PMS5003;35806;47.958;13.158;2023-06-22T00:50:12;14;13;
49914;PMS5003;35806;47.958;13.158;2023-06-22T00:52:45;14;12;
49914;PMS5003;35806;47.958;13.158;2023-06-22T00:55:12;17;13;
49914;PMS5003;35806;47.958;13.158;2023-06-22T00:57:40;17;13;
49914;PMS5003;35806;47.958;13.158;2023-06-22T01:15:29;11;9;
49914;PMS5003;35806;47.958;13.158;2023-06-22T01:18:01;11;8;
49914;PMS5003;35806;47.958;13.158;2023-06-22T01:20:32;9;8;
49914;PMS5003;35806;47.958;13.158;2023-06-22T01:26:01;14;12;
49914;PMS5003;35806;47.958;13.158;2023-06-22T01:28:42;11;8;
49914;PMS5003;35806;47.958;13.158;2023-06-22T01:31:12;15;11;
49914;PMS5003;35806;47.958;13.158;2023-06-22T01:33:43;10;8;
49914;PMS5003;35806;47.958;13.158;2023-06-22T01:36:17;16;13;
49914;PMS5003;35806;47.958;13.158;2023-06-22T01:38:45;9;9;
49914;PMS5003;35806;47.958;13.158;2023-06-22T01:41:25;13;10;
49914;PMS5003;35806;47.958;13.158;2023-06-22T01:44:01;15;14;
49914;PMS5003;35806;47.958;13.158;2023-06-22T01:46:31;12;11;
49914;PMS5003;35806;47.958;13.158;2023-06-22T01:48:59;13;11;
49914;PMS5003;35806;47.958;13.158;2023-06-22T01:51:28;13;11;
49914;PMS5003;35806;47.958;13.158;2023-06-22T01:53:56;17;16;
49914;PMS5003;35806;47.958;13.158;2023-06-22T01:56:39;12;11;
49914;PMS5003;35806;47.958;13.158;2023-06-22T01:59:09;17;14;
49914;PMS5003;35806;47.958;13.158;2023-06-22T02:01:42;14;12;
49914;PMS5003;35806;47.958;13.158;2023-06-22T02:04:17;14;12;
49914;PMS5003;35806;47.958;13.158;2023-06-22T02:06:50;10;10;
49914;PMS5003;35806;47.958;13.158;2023-06-22T02:09:22;15;11;
49914;PMS5003;35806;47.958;13.158;2023-06-22T02:11:52;13;12;
49914;PMS5003;35806;47.958;13.158;2023-06-22T02:14:23;11;10;
49914;PMS5003;35806;47.958;13.158;2023-06-22T02:16:51;17;17;
49914;PMS5003;35806;47.958;13.158;2023-06-22T02:19:22;10;8;
49914;PMS5003;35806;47.958;13.158;2023-06-22T02:21:50;17;15;
49914;PMS5003;35806;47.958;13.158;2023-06-22T02:24:17;13;11;
49914;PMS5003;35806;47.958;13.158;2023-06-22T02:26:44;14;14;
49914;PMS5003;35806;47.958;13.158;2023-06-22T02:29:11;13;12;
49914;PMS5003;35806;47.958;13.158;2023-06-22T02:31:39;10;9;
49914;PMS5003;35806;47.958;13.158;2023-06-22T02:34:06;13;12;
49914;PMS5003;35806;47.958;13.158;2023-06-22T02:36:34;14;13;
49914;PMS5003;35806;47.958;13.158;2023-06-22T02:39:01;14;11;
49914;PMS5003;35806;47.958;13.158;2023-06-22T02:41:28;17;15;
49914;PMS5003;35806;47.958;13.158;2023-06-22T02:43:55;13;11;
49914;PMS5003;35806;47.958;13.158;2023-06-22T02:46:23;13;13;
49914;PMS5003;35806;47.958;13.158;2023-06-22T02:48:50;11;9;
49914;PMS5003;35806;47.958;13.158;2023-06-22T02:51:28;14;12;
49914;PMS5003;35806;47.958;13.158;2023-06-22T02:53:56;13;10;
49914;PMS5003;35806;47.958;13.158;2023-06-22T02:56:24;18;11;
49914;PMS5003;35806;47.958;13.158;2023-06-22T02:58:51;17;13;
49914;PMS5003;35806;47.958;13.158;2023-06-22T03:01:18;10;9;
49914;PMS5003;35806;47.958;13.158;2023-06-22T03:03:46;12;12;
49914;PMS5003;35806;47.958;13.158;2023-06-22T03:06:13;10;9;
49914;PMS5003;35806;47.958;13.158;2023-06-22T03:08:41;9;9;
49914;PMS5003;35806;47.958;13.158;2023-06-22T03:11:08;9;9;
49914;PMS5003;35806;47.958;13.158;2023-06-22T03:13:35;11;11;
49914;PMS5003;35806;47.958;13.158;2023-06-22T03:16:02;14;11;
49914;PMS5003;35806;47.958;13.158;2023-06-22T03:18:30;9;8;
49914;PMS5003;35806;47.958;13.158;2023-06-22T03:20:57;11;10;
49914;PMS5003;35806;47.958;13.158;2023-06-22T03:23:25;10;9;
49914;PMS5003;35806;47.958;13.158;2023-06-22T03:25:52;12;9;
49914;PMS5003;35806;47.958;13.158;2023-06-22T03:28:20;14;10;
49914;PMS5003;35806;47.958;13.158;2023-06-22T03:30:47;10;10;
49914;PMS5003;35806;47.958;13.158;2023-06-22T03:33:15;12;10;
49914;PMS5003;35806;47.958;13.158;2023-06-22T03:35:42;13;10;
49914;PMS5003;35806;47.958;13.158;2023-06-22T03:38:10;13;9;
49914;PMS5003;35806;47.958;13.158;2023-06-22T03:40:37;10;10;
49914;PMS5003;35806;47.958;13.158;2023-06-22T03:43:05;13;11;
49914;PMS5003;35806;47.958;13.158;2023-06-22T03:45:32;11;10;
49914;PMS5003;35806;47.958;13.158;2023-06-22T03:48:00;11;10;
49914;PMS5003;35806;47.958;13.158;2023-06-22T03:50:28;12;12;
49914;PMS5003;35806;47.958;13.158;2023-06-22T03:52:56;14;11;
49914;PMS5003;35806;47.958;13.158;2023-06-22T03:55:23;11;11;
49914;PMS5003;35806;47.958;13.158;2023-06-22T03:57:51;18;17;
49914;PMS5003;35806;47.958;13.158;2023-06-22T04:00:18;13;12;
49914;PMS5003;35806;47.958;13.158;2023-06-22T04:02:45;19;15;
49914;PMS5003;35806;47.958;13.158;2023-06-22T04:07:26;13;11;
49914;PMS5003;35806;47.958;13.158;2023-06-22T04:09:54;13;13;
49914;PMS5003;35806;47.958;13.158;2023-06-22T04:12:21;21;19;
49914;PMS5003;35806;47.958;13.158;2023-06-22T04:14:54;16;13;
49914;PMS5003;35806;47.958;13.158;2023-06-22T04:17:27;15;12;
49914;PMS5003;35806;47.958;13.158;2023-06-22T04:19:55;14;13;
49914;PMS5003;35806;47.958;13.158;2023-06-22T04:22:22;14;14;
49914;PMS5003;35806;47.958;13.158;2023-06-22T04:24:49;21;19;
49914;PMS5003;35806;47.958;13.158;2023-06-22T04:27:17;18;17;
49914;PMS5003;35806;47.958;13.158;2023-06-22T04:29:50;18;15;
49914;PMS5003;35806;47.958;13.158;2023-06-22T04:32:17;17;15;
49914;PMS5003;35806;47.958;13.158;2023-06-22T04:34:45;13;13;
49914;PMS5003;35806;47.958;13.158;2023-06-22T04:37:13;21;19;
49914;PMS5003;35806;47.958;13.158;2023-06-22T04:39:41;19;16;
49914;PMS5003;35806;47.958;13.158;2023-06-22T04:42:09;15;14;
49914;PMS5003;35806;47.958;13.158;2023-06-22T04:44:36;15;15;
49914;PMS5003;35806;47.958;13.158;2023-06-22T04:47:04;18;14;
49914;PMS5003;35806;47.958;13.158;2023-06-22T04:49:31;21;18;
49914;PMS5003;35806;47.958;13.158;2023-06-22T04:51:58;27;20;
49914;PMS5003;35806;47.958;13.158;2023-06-22T04:54:26;19;17;
49914;PMS5003;35806;47.958;13.158;2023-06-22T04:56:53;16;15;
49914;PMS5003;35806;47.958;13.158;2023-06-22T04:59:20;22;21;
49914;PMS5003;35806;47.958;13.158;2023-06-22T05:01:47;19;18;
49914;PMS5003;35806;47.958;13.158;2023-06-22T05:04:15;17;14;
49914;PMS5003;35806;47.958;13.158;2023-06-22T05:06:42;17;16;
49914;PMS5003;35806;47.958;13.158;2023-06-22T05:09:09;20;17;
49914;PMS5003;35806;47.958;13.158;2023-06-22T05:11:37;17;15;
49914;PMS5003;35806;47.958;13.158;2023-06-22T05:14:05;16;12;
49914;PMS5003;35806;47.958;13.158;2023-06-22T05:16:31;18;15;
49914;PMS5003;35806;47.958;13.158;2023-06-22T05:18:59;14;13;
49914;PMS5003;35806;47.958;13.158;2023-06-22T05:21:26;15;14;
49914;PMS5003;35806;47.958;13.158;2023-06-22T05:23:53;18;18;
49914;PMS5003;35806;47.958;13.158;2023-06-22T05:26:21;12;11;
49914;PMS5003;35806;47.958;13.158;2023-06-22T05:28:49;15;13;
49914;PMS5003;35806;47.958;13.158;2023-06-22T05:31:16;14;11;
49914;PMS5003;35806;47.958;13.158;2023-06-22T05:33:44;12;11;
49914;PMS5003;35806;47.958;13.158;2023-06-22T05:36:11;10;10;
49914;PMS5003;35806;47.958;13.158;2023-06-22T05:38:40;13;12;
49914;PMS5003;35806;47.958;13.158;2023-06-22T05:41:08;10;8;
49914;PMS5003;35806;47.958;13.158;2023-06-22T05:43:35;14;12;
49914;PMS5003;35806;47.958;13.158;2023-06-22T05:46:03;10;10;
49914;PMS5003;35806;47.958;13.158;2023-06-22T05:48:31;14;11;
49914;PMS5003;35806;47.958;13.158;2023-06-22T05:50:59;13;12;
49914;PMS5003;35806;47.958;13.158;2023-06-22T05:53:26;17;16;
49914;PMS5003;35806;47.958;13.158;2023-06-22T05:55:53;14;12;
49914;PMS5003;35806;47.958;13.158;2023-06-22T05:58:21;10;10;
49914;PMS5003;35806;47.958;13.158;2023-06-22T06:00:48;10;10;
49914;PMS5003;35806;47.958;13.158;2023-06-22T06:03:15;14;11;
49914;PMS5003;35806;47.958;13.158;2023-06-22T06:05:43;13;12;
49914;PMS5003;35806;47.958;13.158;2023-06-22T06:08:11;12;12;
49914;PMS5003;35806;47.958;13.158;2023-06-22T06:10:38;13;13;
49914;PMS5003;35806;47.958;13.158;2023-06-22T06:13:05;13;12;
49914;PMS5003;35806;47.958;13.158;2023-06-22T06:15:34;14;12;
49914;PMS5003;35806;47.958;13.158;2023-06-22T06:18:01;12;12;
49914;PMS5003;35806;47.958;13.158;2023-06-22T06:20:29;16;12;
49914;PMS5003;35806;47.958;13.158;2023-06-22T06:23:03;12;9;
49914;PMS5003;35806;47.958;13.158;2023-06-22T06:25:31;18;16;
49914;PMS5003;35806;47.958;13.158;2023-06-22T06:27:57;14;13;
49914;PMS5003;35806;47.958;13.158;2023-06-22T06:30:25;10;10;
49914;PMS5003;35806;47.958;13.158;2023-06-22T06:32:52;12;9;
49914;PMS5003;35806;47.958;13.158;2023-06-22T06:35:19;11;11;
49914;PMS5003;35806;47.958;13.158;2023-06-22T06:37:47;9;9;
49914;PMS5003;35806;47.958;13.158;2023-06-22T06:40:17;14;11;
49914;PMS5003;35806;47.958;13.158;2023-06-22T06:42:45;9;9;
49914;PMS5003;35806;47.958;13.158;2023-06-22T06:45:15;16;13;
49914;PMS5003;35806;47.958;13.158;2023-06-22T06:47:43;11;11;
49914;PMS5003;35806;47.958;13.158;2023-06-22T06:50:11;14;14;
49914;PMS5003;35806;47.958;13.158;2023-06-22T06:52:38;15;14;
49914;PMS5003;35806;47.958;13.158;2023-06-22T06:55:06;12;11;
49914;PMS5003;35806;47.958;13.158;2023-06-22T06:57:34;15;13;
49914;PMS5003;35806;47.958;13.158;2023-06-22T07:00:02;15;14;
49914;PMS5003;35806;47.958;13.158;2023-06-22T07:02:30;14;14;
49914;PMS5003;35806;47.958;13.158;2023-06-22T07:04:57;12;12;
49914;PMS5003;35806;47.958;13.158;2023-06-22T07:07:25;13;13;
49914;PMS5003;35806;47.958;13.158;2023-06-22T07:09:52;15;14;
49914;PMS5003;35806;47.958;13.158;2023-06-22T07:12:19;15;12;
49914;PMS5003;35806;47.958;13.158;2023-06-22T07:14:47;15;13;
49914;PMS5003;35806;47.958;13.158;2023-06-22T07:17:14;17;13;
49914;PMS5003;35806;47.958;13.158;2023-06-22T07:19:42;16;14;
49914;PMS5003;35806;47.958;13.158;2023-06-22T07:22:09;17;17;
49914;PMS5003;35806;47.958;13.158;2023-06-22T07:24:37;16;16;
49914;PMS5003;35806;47.958;13.158;2023-06-22T07:27:04;16;14;
49914;PMS5003;35806;47.958;13.158;2023-06-22T07:29:31;20;15;
49914;PMS5003;35806;47.958;13.158;2023-06-22T07:31:59;17;15;
49914;PMS5003;35806;47.958;13.158;2023-06-22T07:34:27;20;17;
49914;PMS5003;35806;47.958;13.158;2023-06-22T07:36:54;21;16;
49914;PMS5003;35806;47.958;13.158;2023-06-22T07:39:21;19;16;
49914;PMS5003;35806;47.958;13.158;2023-06-22T07:41:49;18;18;
49914;PMS5003;35806;47.958;13.158;2023-06-22T07:44:17;17;14;
49914;PMS5003;35806;47.958;13.158;2023-06-22T07:46:44;15;15;
49914;PMS5003;35806;47.958;13.158;2023-06-22T07:49:12;16;15;
49914;PMS5003;35806;47.958;13.158;2023-06-22T07:51:39;17;15;
49914;PMS5003;35806;47.958;13.158;2023-06-22T07:54:06;20;15;
49914;PMS5003;35806;47.958;13.158;2023-06-22T07:56:34;13;13;
49914;PMS5003;35806;47.958;13.158;2023-06-22T07:59:01;17;13;
49914;PMS5003;35806;47.958;13.158;2023-06-22T08:01:29;15;14;
49914;PMS5003;35806;47.958;13.158;2023-06-22T08:04:01;21;16;
49914;PMS5003;35806;47.958;13.158;2023-06-22T08:06:30;17;15;
49914;PMS5003;35806;47.958;13.158;2023-06-22T08:08:57;18;16;
49914;PMS5003;35806;47.958;13.158;2023-06-22T08:11:24;13;13;
49914;PMS5003;35806;47.958;13.158;2023-06-22T08:13:51;18;17;
49914;PMS5003;35806;47.958;13.158;2023-06-22T08:16:19;16;16;
49914;PMS5003;35806;47.958;13.158;2023-06-22T08:18:46;20;15;
49914;PMS5003;35806;47.958;13.158;2023-06-22T08:21:13;15;14;
49914;PMS5003;35806;47.958;13.158;2023-06-22T08:23:40;20;14;
49914;PMS5003;35806;47.958;13.158;2023-06-22T08:26:08;18;16;
49914;PMS5003;35806;47.958;13.158;2023-06-22T08:28:35;15;14;
49914;PMS5003;35806;47.958;13.158;2023-06-22T08:31:03;19;15;
49914;PMS5003;35806;47.958;13.158;2023-06-22T08:33:29;13;12;
49914;PMS5003;35806;47.958;13.158;2023-06-22T08:35:57;22;19;
49914;PMS5003;35806;47.958;13.158;2023-06-22T08:38:25;18;17;
49914;PMS5003;35806;47.958;13.158;2023-06-22T08:40:53;17;16;
49914;PMS5003;35806;47.958;13.158;2023-06-22T08:43:20;20;19;
49914;PMS5003;35806;47.958;13.158;2023-06-22T08:45:47;16;15;
49914;PMS5003;35806;47.958;13.158;2023-06-22T08:48:15;19;17;
49914;PMS5003;35806;47.958;13.158;2023-06-22T08:50:42;21;19;
49914;PMS5003;35806;47.958;13.158;2023-06-22T08:53:09;16;14;
49914;PMS5003;35806;47.958;13.158;2023-06-22T08:55:36;15;15;
49914;PMS5003;35806;47.958;13.158;2023-06-22T08:58:04;18;15;
49914;PMS5003;35806;47.958;13.158;2023-06-22T09:00:31;17;14;
49914;PMS5003;35806;47.958;13.158;2023-06-22T09:02:58;16;16;
49914;PMS5003;35806;47.958;13.158;2023-06-22T09:05:26;16;15;
49914;PMS5003;35806;47.958;13.158;2023-06-22T09:07:52;16;16;
49914;PMS5003;35806;47.958;13.158;2023-06-22T09:10:20;16;16;
49914;PMS5003;35806;47.958;13.158;2023-06-22T09:12:47;14;14;
49914;PMS5003;35806;47.958;13.158;2023-06-22T09:15:14;14;14;
49914;PMS5003;35806;47.958;13.158;2023-06-22T09:17:41;16;15;
49914;PMS5003;35806;47.958;13.158;2023-06-22T09:20:09;15;15;
49914;PMS5003;35806;47.958;13.158;2023-06-22T09:22:37;16;14;
49914;PMS5003;35806;47.958;13.158;2023-06-22T09:25:04;19;19;
49914;PMS5003;35806;47.958;13.158;2023-06-22T09:27:31;19;16;
49914;PMS5003;35806;47.958;13.158;2023-06-22T09:29:58;14;14;
49914;PMS5003;35806;47.958;13.158;2023-06-22T09:32:25;18;16;
49914;PMS5003;35806;47.958;13.158;2023-06-22T09:34:53;20;18;
49914;PMS5003;35806;47.958;13.158;2023-06-22T09:37:20;22;19;
49914;PMS5003;35806;47.958;13.158;2023-06-22T09:39:47;16;14;
49914;PMS5003;35806;47.958;13.158;2023-06-22T09:42:14;18;17;
49914;PMS5003;35806;47.958;13.158;2023-06-22T09:44:42;18;16;
49914;PMS5003;35806;47.958;13.158;2023-06-22T09:47:09;18;16;
49914;PMS5003;35806;47.958;13.158;2023-06-22T09:49:36;17;17;
49914;PMS5003;35806;47.958;13.158;2023-06-22T09:52:04;15;15;
49914;PMS5003;35806;47.958;13.158;2023-06-22T09:54:32;22;17;
49914;PMS5003;35806;47.958;13.158;2023-06-22T09:56:59;17;15;
49914;PMS5003;35806;47.958;13.158;2023-06-22T09:59:27;15;15;
49914;PMS5003;35806;47.958;13.158;2023-06-22T10:01:55;19;16;
49914;PMS5003;35806;47.958;13.158;2023-06-22T10:04:22;19;16;
49914;PMS5003;35806;47.958;13.158;2023-06-22T10:06:49;21;18;
49914;PMS5003;35806;47.958;13.158;2023-06-22T10:09:16;18;18;
49914;PMS5003;35806;47.958;13.158;2023-06-22T10:11:44;13;13;
49914;PMS5003;35806;47.958;13.158;2023-06-22T10:14:11;19;16;
49914;PMS5003;35806;47.958;13.158;2023-06-22T10:16:39;18;15;
49914;PMS5003;35806;47.958;13.158;2023-06-22T10:19:06;19;17;
49914;PMS5003;35806;47.958;13.158;2023-06-22T10:21:34;17;16;
49914;PMS5003;35806;47.958;13.158;2023-06-22T10:24:01;16;13;
49914;PMS5003;35806;47.958;13.158;2023-06-22T10:26:29;18;15;
49914;PMS5003;35806;47.958;13.158;2023-06-22T10:28:57;17;17;
49914;PMS5003;35806;47.958;13.158;2023-06-22T10:31:24;19;18;
49914;PMS5003;35806;47.958;13.158;2023-06-22T10:33:51;19;17;
49914;PMS5003;35806;47.958;13.158;2023-06-22T10:36:20;13;13;
49914;PMS5003;35806;47.958;13.158;2023-06-22T10:38:48;16;14;
49914;PMS5003;35806;47.958;13.158;2023-06-22T10:41:20;22;19;
49914;PMS5003;35806;47.958;13.158;2023-06-22T10:43:47;16;13;
49914;PMS5003;35806;47.958;13.158;2023-06-22T10:46:15;18;17;
49914;PMS5003;35806;47.958;13.158;2023-06-22T10:48:42;22;18;
49914;PMS5003;35806;47.958;13.158;2023-06-22T10:51:09;17;15;
49914;PMS5003;35806;47.958;13.158;2023-06-22T10:53:36;15;15;
49914;PMS5003;35806;47.958;13.158;2023-06-22T10:56:04;18;17;
49914;PMS5003;35806;47.958;13.158;2023-06-22T10:58:31;17;16;
49914;PMS5003;35806;47.958;13.158;2023-06-22T11:00:59;15;13;
49914;PMS5003;35806;47.958;13.158;2023-06-22T11:03:26;18;15;
49914;PMS5003;35806;47.958;13.158;2023-06-22T11:05:53;16;14;
49914;PMS5003;35806;47.958;13.158;2023-06-22T11:08:20;16;16;
49914;PMS5003;35806;47.958;13.158;2023-06-22T11:10:48;18;15;
49914;PMS5003;35806;47.958;13.158;2023-06-22T11:13:17;19;15;
49914;PMS5003;35806;47.958;13.158;2023-06-22T11:15:44;19;16;
49914;PMS5003;35806;47.958;13.158;2023-06-22T11:18:11;17;16;
49914;PMS5003;35806;47.958;13.158;2023-06-22T11:20:38;19;17;
49914;PMS5003;35806;47.958;13.158;2023-06-22T11:23:05;14;13;
49914;PMS5003;35806;47.958;13.158;2023-06-22T11:25:33;12;12;
49914;PMS5003;35806;47.958;13.158;2023-06-22T11:28:01;18;13;
49914;PMS5003;35806;47.958;13.158;2023-06-22T11:30:29;16;15;
49914;PMS5003;35806;47.958;13.158;2023-06-22T11:32:56;20;20;
49914;PMS5003;35806;47.958;13.158;2023-06-22T11:35:25;15;14;
49914;PMS5003;35806;47.958;13.158;2023-06-22T11:37:52;20;17;
49914;PMS5003;35806;47.958;13.158;2023-06-22T11:40:19;16;16;
49914;PMS5003;35806;47.958;13.158;2023-06-22T11:42:47;15;15;
49914;PMS5003;35806;47.958;13.158;2023-06-22T11:45:14;16;15;
49914;PMS5003;35806;47.958;13.158;2023-06-22T11:47:42;19;16;
49914;PMS5003;35806;47.958;13.158;2023-06-22T11:50:09;14;14;
49914;PMS5003;35806;47.958;13.158;2023-06-22T11:52:36;19;16;
49914;PMS5003;35806;47.958;13.158;2023-06-22T11:55:04;17;14;
49914;PMS5003;35806;47.958;13.158;2023-06-22T11:57:33;20;19;
49914;PMS5003;35806;47.958;13.158;2023-06-22T12:00:01;22;20;
49914;PMS5003;35806;47.958;13.158;2023-06-22T12:02:29;18;17;
49914;PMS5003;35806;47.958;13.158;2023-06-22T12:04:57;18;15;
49914;PMS5003;35806;47.958;13.158;2023-06-22T12:07:24;21;17;
49914;PMS5003;35806;47.958;13.158;2023-06-22T12:09:51;21;15;
49914;PMS5003;35806;47.958;13.158;2023-06-22T12:12:19;18;15;
49914;PMS5003;35806;47.958;13.158;2023-06-22T12:14:46;15;15;
49914;PMS5003;35806;47.958;13.158;2023-06-22T12:17:14;15;15;
49914;PMS5003;35806;47.958;13.158;2023-06-22T12:19:46;18;18;
49914;PMS5003;35806;47.958;13.158;2023-06-22T12:22:13;19;15;
49914;PMS5003;35806;47.958;13.158;2023-06-22T12:24:40;22;19;
49914;PMS5003;35806;47.958;13.158;2023-06-22T12:27:08;20;18;
49914;PMS5003;35806;47.958;13.158;2023-06-22T12:29:46;17;15;
49914;PMS5003;35806;47.958;13.158;2023-06-22T12:32:15;16;12;
49914;PMS5003;35806;47.958;13.158;2023-06-22T12:34:52;19;16;
49914;PMS5003;35806;47.958;13.158;2023-06-22T12:37:19;18;17;
49914;PMS5003;35806;47.958;13.158;2023-06-22T12:39:50;16;15;
49914;PMS5003;35806;47.958;13.158;2023-06-22T12:42:33;20;14;
49914;PMS5003;35806;47.958;13.158;2023-06-22T12:45:00;16;16;
49914;PMS5003;35806;47.958;13.158;2023-06-22T12:47:35;14;14;
49914;PMS5003;35806;47.958;13.158;2023-06-22T12:50:11;14;13;
49914;PMS5003;35806;47.958;13.158;2023-06-22T12:52:39;14;14;
49914;PMS5003;35806;47.958;13.158;2023-06-22T12:55:06;19;17;
49914;PMS5003;35806;47.958;13.158;2023-06-22T12:57:35;19;19;
49914;PMS5003;35806;47.958;13.158;2023-06-22T13:00:02;19;16;
49914;PMS5003;35806;47.958;13.158;2023-06-22T13:02:30;18;16;
49914;PMS5003;35806;47.958;13.158;2023-06-22T13:04:58;18;15;
49914;PMS5003;35806;47.958;13.158;2023-06-22T13:07:25;18;15;
49914;PMS5003;35806;47.958;13.158;2023-06-22T13:09:52;17;14;
49914;PMS5003;35806;47.958;13.158;2023-06-22T13:12:20;16;15;
49914;PMS5003;35806;47.958;13.158;2023-06-22T13:14:47;17;16;
49914;PMS5003;35806;47.958;13.158;2023-06-22T13:17:15;14;14;
49914;PMS5003;35806;47.958;13.158;2023-06-22T13:19:42;16;16;
49914;PMS5003;35806;47.958;13.158;2023-06-22T13:22:25;14;14;
49914;PMS5003;35806;47.958;13.158;2023-06-22T13:24:55;18;14;
49914;PMS5003;35806;47.958;13.158;2023-06-22T13:27:22;16;16;
49914;PMS5003;35806;47.958;13.158;2023-06-22T13:29:49;19;16;
49914;PMS5003;35806;47.958;13.158;2023-06-22T13:32:17;15;15;
49914;PMS5003;35806;47.958;13.158;2023-06-22T13:34:44;13;12;
49914;PMS5003;35806;47.958;13.158;2023-06-22T13:37:12;19;15;
49914;PMS5003;35806;47.958;13.158;2023-06-22T13:39:39;15;13;
49914;PMS5003;35806;47.958;13.158;2023-06-22T13:42:07;11;11;
49914;PMS5003;35806;47.958;13.158;2023-06-22T13:44:34;17;14;
49914;PMS5003;35806;47.958;13.158;2023-06-22T13:47:02;16;15;
49914;PMS5003;35806;47.958;13.158;2023-06-22T13:49:30;17;15;
49914;PMS5003;35806;47.958;13.158;2023-06-22T13:51:57;19;14;
49914;PMS5003;35806;47.958;13.158;2023-06-22T13:54:25;15;13;
49914;PMS5003;35806;47.958;13.158;2023-06-22T13:56:52;15;15;
49914;PMS5003;35806;47.958;13.158;2023-06-22T13:59:19;13;12;
49914;PMS5003;35806;47.958;13.158;2023-06-22T14:01:47;16;16;
49914;PMS5003;35806;47.958;13.158;2023-06-22T14:04:14;18;18;
49914;PMS5003;35806;47.958;13.158;2023-06-22T14:06:42;16;15;
49914;PMS5003;35806;47.958;13.158;2023-06-22T14:09:09;16;14;
49914;PMS5003;35806;47.958;13.158;2023-06-22T14:11:36;17;15;
49914;PMS5003;35806;47.958;13.158;2023-06-22T14:14:04;18;15;
49914;PMS5003;35806;47.958;13.158;2023-06-22T14:16:31;12;12;
49914;PMS5003;35806;47.958;13.158;2023-06-22T14:18:59;17;14;
49914;PMS5003;35806;47.958;13.158;2023-06-22T14:21:26;16;15;
49914;PMS5003;35806;47.958;13.158;2023-06-22T14:23:53;18;16;
49914;PMS5003;35806;47.958;13.158;2023-06-22T14:26:21;14;14;
49914;PMS5003;35806;47.958;13.158;2023-06-22T14:28:48;18;16;
49914;PMS5003;35806;47.958;13.158;2023-06-22T14:31:16;15;15;
49914;PMS5003;35806;47.958;13.158;2023-06-22T14:33:45;16;14;
49914;PMS5003;35806;47.958;13.158;2023-06-22T14:36:13;14;13;
49914;PMS5003;35806;47.958;13.158;2023-06-22T14:38:40;16;15;
49914;PMS5003;35806;47.958;13.158;2023-06-22T14:41:07;10;10;
49914;PMS5003;35806;47.958;13.158;2023-06-22T14:43:35;15;11;
49914;PMS5003;35806;47.958;13.158;2023-06-22T14:46:03;14;13;
49914;PMS5003;35806;47.958;13.158;2023-06-22T14:48:31;11;11;
49914;PMS5003;35806;47.958;13.158;2023-06-22T14:50:58;12;10;
49914;PMS5003;35806;47.958;13.158;2023-06-22T14:53:26;13;13;
49914;PMS5003;35806;47.958;13.158;2023-06-22T14:55:53;17;16;
49914;PMS5003;35806;47.958;13.158;2023-06-22T14:58:20;19;14;
49914;PMS5003;35806;47.958;13.158;2023-06-22T15:00:48;16;15;
49914;PMS5003;35806;47.958;13.158;2023-06-22T15:03:15;15;13;
49914;PMS5003;35806;47.958;13.158;2023-06-22T15:05:43;14;12;
49914;PMS5003;35806;47.958;13.158;2023-06-22T15:08:11;17;14;
49914;PMS5003;35806;47.958;13.158;2023-06-22T15:10:39;13;11;
49914;PMS5003;35806;47.958;13.158;2023-06-22T15:13:06;15;13;
49914;PMS5003;35806;47.958;13.158;2023-06-22T15:15:33;20;15;
49914;PMS5003;35806;47.958;13.158;2023-06-22T15:18:01;17;14;
49914;PMS5003;35806;47.958;13.158;2023-06-22T15:20:29;14;13;
49914;PMS5003;35806;47.958;13.158;2023-06-22T15:22:56;16;16;
49914;PMS5003;35806;47.958;13.158;2023-06-22T15:25:24;17;15;
49914;PMS5003;35806;47.958;13.158;2023-06-22T15:27:51;19;15;
49914;PMS5003;35806;47.958;13.158;2023-06-22T15:30:19;16;14;
49914;PMS5003;35806;47.958;13.158;2023-06-22T15:32:46;14;14;
49914;PMS5003;35806;47.958;13.158;2023-06-22T15:35:14;22;15;
49914;PMS5003;35806;47.958;13.158;2023-06-22T15:37:41;20;17;
49914;PMS5003;35806;47.958;13.158;2023-06-22T15:40:09;18;14;
49914;PMS5003;35806;47.958;13.158;2023-06-22T15:42:36;19;18;
49914;PMS5003;35806;47.958;13.158;2023-06-22T15:45:05;21;16;
49914;PMS5003;35806;47.958;13.158;2023-06-22T15:47:33;16;16;
49914;PMS5003;35806;47.958;13.158;2023-06-22T15:50:00;17;16;
49914;PMS5003;35806;47.958;13.158;2023-06-22T15:52:27;18;17;
49914;PMS5003;35806;47.958;13.158;2023-06-22T15:54:54;18;15;
49914;PMS5003;35806;47.958;13.158;2023-06-22T15:57:22;19;16;
49914;PMS5003;35806;47.958;13.158;2023-06-22T15:59:49;18;17;
49914;PMS5003;35806;47.958;13.158;2023-06-22T16:02:17;18;17;
49914;PMS5003;35806;47.958;13.158;2023-06-22T16:04:44;15;15;
49914;PMS5003;35806;47.958;13.158;2023-06-22T16:07:11;14;13;
49914;PMS5003;35806;47.958;13.158;2023-06-22T16:09:39;20;16;
49914;PMS5003;35806;47.958;13.158;2023-06-22T16:12:06;18;16;
49914;PMS5003;35806;47.958;13.158;2023-06-22T16:14:34;22;18;
49914;PMS5003;35806;47.958;13.158;2023-06-22T16:17:01;19;16;
49914;PMS5003;35806;47.958;13.158;2023-06-22T16:19:28;18;15;
49914;PMS5003;35806;47.958;13.158;2023-06-22T16:21:56;18;17;
49914;PMS5003;35806;47.958;13.158;2023-06-22T16:24:23;15;15;
49914;PMS5003;35806;47.958;13.158;2023-06-22T16:26:51;21;20;
49914;PMS5003;35806;47.958;13.158;2023-06-22T16:29:18;18;18;